Terminal Aerodrome Forecast
Issued by NWS

Home | Current Version | Previous Version | Text Only | Print | Product List | Glossary On
Versions: 1 2 3 4 5 6 7 8 9 10 11 12 13 14 15 16 17 18
000
FTUS46 KSEW 280622 AAA
TAFCLM
TAF AMD
KCLM 280622Z 2806/0106 12005KT 5SM -SHSN BR SCT006 SCT015 OVC025
      TEMPO 2806/2809 2SM -SN BKN006 OVC015
     FM281000 VRB04KT 5SM BR VCSH SCT015 BKN035
     FM281400 29006KT P6SM BKN045
     FM010100 27012KT P6SM -RA OVC035=

USA.gov is the U.S. government's official web portal to all federal, state and local government web resources and services.